createdAt,value
2019-02-08T00:01:18.860Z,99.90
2019-02-08T00:03:48.610Z,99.90
2019-02-08T00:06:18.310Z,99.90
2019-02-08T00:08:48.023Z,99.90
2019-02-08T00:11:17.648Z,99.90
2019-02-08T00:13:47.313Z,99.90
2019-02-08T00:16:17.116Z,99.90
2019-02-08T00:18:47.034Z,99.90
2019-02-08T00:21:16.721Z,99.90
2019-02-08T00:23:46.310Z,99.90
2019-02-08T00:26:15.958Z,99.90
2019-02-08T00:28:45.665Z,99.90
2019-02-08T00:31:15.395Z,99.90
2019-02-08T00:33:45.385Z,99.90
2019-02-08T00:36:15.045Z,99.90
2019-02-08T00:38:44.708Z,99.90
2019-02-08T00:41:14.361Z,99.90
2019-02-08T00:43:44.001Z,99.90
2019-02-08T00:46:13.662Z,99.90
2019-02-08T00:48:43.756Z,99.90
2019-02-08T00:51:13.410Z,99.90
2019-02-08T00:53:43.039Z,99.90
2019-02-08T00:56:12.757Z,99.90
2019-02-08T00:58:42.385Z,99.90
2019-02-08T01:01:12.034Z,99.90
2019-02-08T01:03:41.668Z,99.90
2019-02-08T01:06:11.850Z,99.90
2019-02-08T01:08:41.711Z,99.90
2019-02-08T01:11:11.372Z,99.90
2019-02-08T01:13:41.037Z,99.90
2019-02-08T01:16:10.648Z,99.90
2019-02-08T01:18:40.267Z,99.90
2019-02-08T01:21:09.913Z,99.90
2019-02-08T01:23:41.224Z,99.90
2019-02-08T01:26:10.945Z,99.90
2019-02-08T01:28:40.616Z,99.90
2019-02-08T01:31:10.329Z,99.90
2019-02-08T01:33:39.954Z,99.90
2019-02-08T01:36:09.597Z,99.90
2019-02-08T01:38:39.260Z,99.90
2019-02-08T01:41:08.970Z,99.90
2019-02-08T01:43:38.598Z,99.90
2019-02-08T01:46:08.244Z,99.90
2019-02-08T01:48:37.880Z,99.90
2019-02-08T01:51:08.574Z,99.90
2019-02-08T01:53:38.224Z,99.90
2019-02-08T01:56:07.937Z,99.90
2019-02-08T01:58:37.724Z,99.90
2019-02-08T02:01:07.539Z,99.90
2019-02-08T02:03:37.148Z,99.90
2019-02-08T02:06:06.868Z,99.90
2019-02-08T02:08:36.555Z,99.90
2019-02-08T02:11:06.272Z,99.90
2019-02-08T02:13:36.060Z,99.90
2019-02-08T02:16:05.869Z,99.90
2019-02-08T02:18:35.552Z,99.90
2019-02-08T02:21:05.336Z,99.90
2019-02-08T02:23:34.960Z,99.90
2019-02-08T02:26:04.680Z,99.90
2019-02-08T02:28:34.457Z,99.90
2019-02-08T02:31:04.455Z,99.90
2019-02-08T02:33:34.070Z,99.90
2019-02-08T02:36:04.184Z,99.90
2019-02-08T02:38:33.838Z,99.90
2019-02-08T02:41:03.487Z,99.90
2019-02-08T02:43:33.118Z,99.90
2019-02-08T02:46:02.846Z,99.90
2019-02-08T02:48:32.640Z,99.90
2019-02-08T02:51:02.378Z,99.90
2019-02-08T02:53:31.996Z,99.90
2019-02-08T02:56:01.632Z,99.90
2019-02-08T02:58:31.332Z,99.90
2019-02-08T03:01:01.034Z,99.90
2019-02-08T03:03:30.684Z,99.90
2019-02-08T03:06:00.373Z,99.90
2019-02-08T03:08:30.032Z,99.90
2019-02-08T03:10:59.656Z,99.90
2019-02-08T03:13:29.314Z,99.90
2019-02-08T03:15:58.929Z,99.90
2019-02-08T03:18:28.576Z,99.90
2019-02-08T03:20:58.207Z,99.90
2019-02-08T03:23:27.930Z,99.90
2019-02-08T03:25:57.620Z,99.90
2019-02-08T03:28:27.266Z,99.90
2019-02-08T03:30:57.186Z,99.90
2019-02-08T03:33:27.358Z,99.90
2019-02-08T03:35:57.016Z,99.90
2019-02-08T03:38:26.660Z,99.90
2019-02-08T03:40:56.289Z,99.90
2019-02-08T03:43:26.072Z,99.90
2019-02-08T03:45:55.700Z,99.90
2019-02-08T03:48:25.353Z,99.90
2019-02-08T03:50:55.040Z,99.90
2019-02-08T03:53:24.705Z,99.90
2019-02-08T03:55:58.276Z,99.90
2019-02-08T03:58:25.601Z,99.90
2019-02-08T04:00:56.934Z,99.90
2019-02-08T04:03:26.576Z,99.90
2019-02-08T04:05:56.449Z,99.90
2019-02-08T04:08:26.568Z,99.90
2019-02-08T04:10:56.265Z,99.90
2019-02-08T04:13:25.990Z,99.90
2019-02-08T04:15:55.752Z,99.90
2019-02-08T04:18:25.544Z,99.90
2019-02-08T04:20:55.168Z,99.90
2019-02-08T04:23:24.824Z,99.90
2019-02-08T04:25:54.530Z,99.90
2019-02-08T04:28:24.176Z,99.90
2019-02-08T04:30:53.876Z,99.90
2019-02-08T04:33:23.529Z,99.90
2019-02-08T04:35:53.220Z,99.90
2019-02-08T04:38:22.951Z,99.90
2019-02-08T04:40:52.578Z,99.90
2019-02-08T04:43:22.226Z,99.90
2019-02-08T04:45:51.924Z,99.90
2019-02-08T04:48:22.985Z,99.90
2019-02-08T04:50:52.602Z,99.90
2019-02-08T04:53:22.324Z,99.90
2019-02-08T04:55:52.123Z,99.90
2019-02-08T04:58:21.852Z,99.90
2019-02-08T05:00:51.482Z,99.90
2019-02-08T05:03:21.170Z,99.90
2019-02-08T05:05:50.777Z,99.90
2019-02-08T05:08:20.541Z,99.90
2019-02-08T05:10:50.247Z,99.90
2019-02-08T05:13:19.890Z,99.90
2019-02-08T05:15:49.516Z,99.90
2019-02-08T05:18:19.216Z,99.90
2019-02-08T05:20:48.845Z,99.90
2019-02-08T05:23:18.568Z,99.90
2019-02-08T05:25:48.198Z,99.90
2019-02-08T05:28:17.847Z,99.90
2019-02-08T05:30:47.468Z,99.90
2019-02-08T05:33:17.116Z,99.90
2019-02-08T05:35:46.812Z,99.90
2019-02-08T05:38:16.496Z,99.90
2019-02-08T05:40:46.185Z,99.90
2019-02-08T05:43:15.833Z,99.90
2019-02-08T05:45:45.472Z,99.90
2019-02-08T05:48:15.112Z,99.90
2019-02-08T05:50:44.741Z,99.90
2019-02-08T05:53:14.459Z,99.90
2019-02-08T05:55:44.084Z,99.90
2019-02-08T05:58:13.857Z,99.90
2019-02-08T06:00:50.102Z,99.90
2019-02-08T06:03:19.817Z,99.90
2019-02-08T06:05:49.783Z,99.90
2019-02-08T06:08:19.529Z,99.90
2019-02-08T06:10:49.234Z,99.90
2019-02-08T06:13:18.885Z,99.90
2019-02-08T06:15:48.553Z,99.90
2019-02-08T06:18:18.357Z,99.90
2019-02-08T06:20:48.104Z,99.90
2019-02-08T06:23:17.800Z,99.90
2019-02-08T06:25:47.617Z,99.90
2019-02-08T06:28:17.317Z,99.90
2019-02-08T06:30:46.972Z,99.90
2019-02-08T06:33:16.601Z,99.90
2019-02-08T06:35:46.262Z,99.90
2019-02-08T06:38:15.965Z,99.90
2019-02-08T06:40:47.357Z,99.90
2019-02-08T06:43:16.981Z,99.90
2019-02-08T06:45:46.648Z,99.90
2019-02-08T06:48:16.480Z,99.90
2019-02-08T06:50:46.128Z,99.90
2019-02-08T06:53:15.764Z,99.90
2019-02-08T06:55:45.485Z,99.90
2019-02-08T06:58:22.966Z,99.90
2019-02-08T07:01:03.855Z,99.90
2019-02-08T07:03:35.242Z,99.90
2019-02-08T07:06:07.562Z,99.90
2019-02-08T07:08:51.180Z,99.90
2019-02-08T07:11:31.272Z,99.90
2019-02-08T07:14:11.231Z,99.90
2019-02-08T07:16:51.245Z,99.90
2019-02-08T07:19:22.684Z,99.90
2019-02-08T07:21:56.714Z,99.90
2019-02-08T07:24:34.167Z,99.90
2019-02-08T07:27:14.357Z,99.90
2019-02-08T07:29:46.044Z,99.90
2019-02-08T07:32:26.347Z,99.90
2019-02-08T07:35:03.889Z,99.90
2019-02-08T07:37:47.050Z,99.90
2019-02-08T07:40:30.688Z,99.90
2019-02-08T07:43:21.397Z,99.90
2019-02-08T07:45:59.360Z,99.90
2019-02-08T07:48:46.472Z,99.90
2019-02-08T07:51:26.901Z,99.90
2019-02-08T07:54:08.042Z,99.90
2019-02-08T07:56:56.044Z,99.90
2019-02-08T07:59:34.328Z,99.90
2019-02-08T08:02:08.713Z,99.90
2019-02-08T08:04:46.156Z,99.90
2019-02-08T08:07:17.587Z,99.90
2019-02-08T08:10:01.032Z,99.90
2019-02-08T08:12:44.516Z,99.90
2019-02-08T08:15:18.151Z,99.90
2019-02-08T08:17:58.896Z,99.90
2019-02-08T08:20:47.289Z,99.90
2019-02-08T08:23:30.009Z,99.90
2019-02-08T08:26:06.198Z,99.90
2019-02-08T08:28:37.533Z,99.90
2019-02-08T08:31:13.152Z,99.90
2019-02-08T08:33:45.880Z,99.90
2019-02-08T08:36:35.085Z,99.90
2019-02-08T08:39:16.644Z,99.90
2019-02-08T08:41:58.436Z,99.90
2019-02-08T08:44:56.537Z,99.90
2019-02-08T08:47:45.703Z,99.90
2019-02-08T08:50:44.140Z,99.90
2019-02-08T08:53:34.844Z,99.90
2019-02-08T08:56:19.343Z,99.90
2019-02-08T08:59:27.081Z,99.90
2019-02-08T09:02:16.692Z,99.90
2019-02-08T09:04:49.396Z,99.90
2019-02-08T09:07:34.054Z,99.90
2019-02-08T09:10:09.468Z,99.90
2019-02-08T09:13:00.176Z,99.90
2019-02-08T09:15:41.594Z,99.90
2019-02-08T09:18:35.508Z,99.90
2019-02-08T09:21:41.402Z,99.90
2019-02-08T09:24:33.748Z,99.90
2019-02-08T09:27:22.938Z,99.90
2019-02-08T09:30:12.148Z,99.90
2019-02-08T09:33:19.988Z,99.90
2019-02-08T09:36:21.297Z,99.90
2019-02-08T09:38:56.724Z,99.90
2019-02-08T09:41:32.368Z,99.90
2019-02-08T09:44:16.916Z,99.90
2019-02-08T09:47:23.161Z,99.90
2019-02-08T09:50:18.703Z,94.30
2019-02-08T09:53:14.820Z,86.50
2019-02-08T09:56:07.958Z,85.40
2019-02-08T09:58:55.676Z,79.30
2019-02-08T10:01:44.616Z,82.40
2019-02-08T10:04:47.448Z,86.00
2019-02-08T10:07:26.072Z,98.80
2019-02-08T10:10:27.378Z,99.90
2019-02-08T10:13:33.349Z,99.90
2019-02-08T10:16:20.425Z,99.90
2019-02-08T10:19:12.480Z,82.50
2019-02-08T10:22:02.972Z,70.70
2019-02-08T10:24:55.117Z,64.00
2019-02-08T10:27:40.101Z,59.10
2019-02-08T10:30:41.573Z,54.70
2019-02-08T10:33:23.385Z,54.10
2019-02-08T10:36:29.373Z,54.50
2019-02-08T10:39:14.217Z,56.40
2019-02-08T10:42:09.236Z,54.10
2019-02-08T10:45:01.594Z,53.00
2019-02-08T10:47:56.704Z,53.30
2019-02-08T10:50:54.901Z,52.40
2019-02-08T10:53:39.176Z,52.20
2019-02-08T10:56:44.938Z,51.50
2019-02-08T10:59:46.396Z,49.70
2019-02-08T11:02:52.419Z,47.80
2019-02-08T11:05:30.932Z,48.70
2019-02-08T11:08:36.924Z,44.70
2019-02-08T11:11:33.823Z,45.20
2019-02-08T11:14:26.253Z,44.20
2019-02-08T11:17:35.295Z,43.10
2019-02-08T11:20:07.300Z,42.20
2019-02-08T11:22:36.969Z,43.00
2019-02-08T11:25:08.947Z,44.00
2019-02-08T11:27:38.569Z,46.20
2019-02-08T11:30:14.184Z,45.40
2019-02-08T11:32:43.943Z,45.80
2019-02-08T11:35:15.224Z,45.80
2019-02-08T11:37:44.988Z,46.00
2019-02-08T11:40:17.699Z,42.00
2019-02-08T11:42:47.456Z,42.50
2019-02-08T11:45:18.041Z,43.10
2019-02-08T11:47:47.724Z,43.50
2019-02-08T11:50:22.098Z,43.10
2019-02-08T11:52:51.716Z,45.90
2019-02-08T11:55:21.359Z,47.30
2019-02-08T11:57:50.976Z,45.10
2019-02-08T12:00:25.472Z,45.90
2019-02-08T12:02:55.161Z,43.60
2019-02-08T12:05:24.972Z,38.60
2019-02-08T12:07:54.587Z,40.00
2019-02-08T12:10:24.294Z,42.80
2019-02-08T12:12:53.914Z,42.10
2019-02-08T12:15:24.199Z,43.40
2019-02-08T12:17:53.816Z,47.00
2019-02-08T12:20:23.456Z,45.30
2019-02-08T12:22:53.460Z,48.40
2019-02-08T12:25:23.048Z,46.80
2019-02-08T12:27:52.664Z,45.60
2019-02-08T12:30:34.669Z,44.60
2019-02-08T12:33:05.469Z,47.60
2019-02-08T12:35:35.140Z,50.50
2019-02-08T12:38:05.202Z,49.30
2019-02-08T12:40:34.899Z,48.60
2019-02-08T12:43:05.054Z,49.00
2019-02-08T12:45:35.032Z,49.90
2019-02-08T12:48:05.184Z,51.40
2019-02-08T12:50:34.892Z,50.00
2019-02-08T12:53:04.650Z,49.30
2019-02-08T12:55:34.352Z,51.50
2019-02-08T12:58:03.972Z,52.50
2019-02-08T13:00:33.614Z,51.80
2019-02-08T13:03:03.243Z,46.60
2019-02-08T13:05:32.952Z,45.70
2019-02-08T13:08:02.576Z,45.90
2019-02-08T13:10:32.460Z,44.40
2019-02-08T13:13:02.315Z,45.30
2019-02-08T13:15:31.965Z,46.10
2019-02-08T13:18:01.581Z,48.30
2019-02-08T13:20:31.214Z,50.40
2019-02-08T13:23:00.837Z,52.70
2019-02-08T13:25:30.476Z,54.90
2019-02-08T13:28:00.102Z,55.20
2019-02-08T13:30:32.161Z,56.00
2019-02-08T13:35:44.250Z,59.70
2019-02-08T13:38:13.896Z,61.50
2019-02-08T13:40:43.987Z,64.90
2019-02-08T13:43:13.608Z,67.60
2019-02-08T13:45:43.332Z,67.60
2019-02-08T13:48:13.020Z,69.10
2019-02-08T13:50:42.737Z,70.00
2019-02-08T13:53:12.424Z,69.10
2019-02-08T13:55:42.080Z,71.70
2019-02-08T13:58:11.692Z,71.30
2019-02-08T14:00:41.956Z,71.10
2019-02-08T14:03:11.612Z,70.40
2019-02-08T14:05:41.328Z,75.80
2019-02-08T14:08:11.125Z,76.90
2019-02-08T14:10:40.750Z,77.40
2019-02-08T14:13:10.393Z,75.80
2019-02-08T14:15:40.149Z,72.20
2019-02-08T14:18:09.872Z,67.00
2019-02-08T14:20:39.486Z,68.00
2019-02-08T14:23:09.197Z,70.10
2019-02-08T14:25:38.841Z,73.80
2019-02-08T14:28:09.431Z,74.10
2019-02-08T14:30:43.587Z,72.50
2019-02-08T14:33:13.295Z,73.40
2019-02-08T14:35:43.011Z,75.70
2019-02-08T14:38:15.862Z,81.00
2019-02-08T14:40:45.620Z,82.00
2019-02-08T14:43:15.326Z,82.00
2019-02-08T14:45:45.041Z,82.10
2019-02-08T14:48:14.676Z,84.10
2019-02-08T14:50:44.364Z,88.10
2019-02-08T14:53:14.101Z,92.10
2019-02-08T14:55:43.789Z,93.90
2019-02-08T14:58:13.564Z,95.40
2019-02-08T15:00:43.250Z,94.40
2019-02-08T15:03:12.888Z,93.90
2019-02-08T15:05:42.532Z,93.90
2019-02-08T15:08:12.169Z,94.20
2019-02-08T15:10:50.319Z,93.20
2019-02-08T15:13:19.970Z,91.00
2019-02-08T15:15:49.596Z,92.30
2019-02-08T15:18:19.239Z,92.80
2019-02-08T15:20:48.848Z,94.00
2019-02-08T15:23:18.628Z,95.30
2019-02-08T15:25:48.314Z,97.00
2019-02-08T15:28:17.949Z,97.10
2019-02-08T15:30:47.693Z,99.90
2019-02-08T15:33:17.596Z,99.90
2019-02-08T15:35:47.214Z,99.90
2019-02-08T15:38:16.920Z,99.90
2019-02-08T15:40:49.384Z,99.90
2019-02-08T15:43:20.897Z,99.90
2019-02-08T15:45:56.160Z,99.90
2019-02-08T15:48:25.802Z,99.90
2019-02-08T15:50:55.484Z,99.90
2019-02-08T15:53:25.117Z,99.90
2019-02-08T15:56:12.932Z,99.90
2019-02-08T15:58:42.717Z,99.90
2019-02-08T16:01:12.472Z,99.90
2019-02-08T16:03:42.119Z,99.90
2019-02-08T16:06:11.873Z,99.90
2019-02-08T16:08:41.684Z,99.90
2019-02-08T16:11:12.044Z,99.90
2019-02-08T16:13:41.676Z,99.90
2019-02-08T16:16:11.769Z,99.90
2019-02-08T16:18:41.412Z,99.90
2019-02-08T16:21:11.169Z,99.90
2019-02-08T16:23:40.884Z,99.90
2019-02-08T16:26:10.756Z,99.90
2019-02-08T16:28:40.466Z,99.90
2019-02-08T16:31:10.221Z,99.90
2019-02-08T16:33:39.862Z,99.90
2019-02-08T16:36:09.608Z,99.90
2019-02-08T16:38:39.247Z,99.90
2019-02-08T16:41:08.932Z,99.90
2019-02-08T16:43:38.590Z,99.90
2019-02-08T16:46:08.449Z,99.90
2019-02-08T16:48:38.077Z,99.90
2019-02-08T16:51:07.752Z,99.90
2019-02-08T16:53:37.396Z,99.90
2019-02-08T16:56:07.254Z,99.90
2019-02-08T16:58:36.967Z,99.90
2019-02-08T17:01:06.813Z,99.90
2019-02-08T17:03:36.449Z,99.90
2019-02-08T17:06:06.309Z,99.90
2019-02-08T17:08:35.948Z,99.90
2019-02-08T17:11:05.704Z,99.90
2019-02-08T17:13:35.340Z,99.90
2019-02-08T17:16:06.296Z,99.90
2019-02-08T17:18:35.929Z,99.90
2019-02-08T17:21:05.685Z,99.90
2019-02-08T17:23:35.397Z,99.90
2019-02-08T17:26:05.415Z,99.90
2019-02-08T17:28:35.060Z,99.90
2019-02-08T17:31:04.900Z,99.90
2019-02-08T17:33:34.538Z,99.90
2019-02-08T17:36:04.494Z,99.90
2019-02-08T17:38:35.638Z,99.90
2019-02-08T17:41:05.930Z,99.90
2019-02-08T17:43:35.528Z,99.90
2019-02-08T17:46:05.721Z,99.90
2019-02-08T17:48:35.356Z,99.90
2019-02-08T17:51:05.308Z,99.90
2019-02-08T17:53:35.017Z,99.90
2019-02-08T17:56:04.975Z,99.90
2019-02-08T17:58:34.610Z,99.90
2019-02-08T18:01:04.772Z,99.90
2019-02-08T18:03:34.416Z,99.90
2019-02-08T18:06:04.271Z,99.90
2019-02-08T18:08:33.916Z,99.90
2019-02-08T18:11:03.708Z,99.90
2019-02-08T18:13:33.352Z,99.90
2019-02-08T18:16:03.111Z,99.90
2019-02-08T18:18:32.796Z,99.90
2019-02-08T18:21:02.464Z,99.90
2019-02-08T18:23:32.084Z,99.90
2019-02-08T18:26:01.852Z,99.90
2019-02-08T18:28:32.291Z,99.90
2019-02-08T18:31:01.904Z,99.90
2019-02-08T18:33:31.519Z,99.90
2019-02-08T18:36:01.169Z,99.90
2019-02-08T18:38:30.784Z,99.90
2019-02-08T18:41:00.483Z,99.90
2019-02-08T18:43:30.100Z,99.90
2019-02-08T18:45:59.744Z,99.90
2019-02-08T18:48:29.388Z,99.90
2019-02-08T18:50:59.072Z,99.90
2019-02-08T18:53:28.693Z,99.90
2019-02-08T18:55:58.556Z,99.90
2019-02-08T18:58:28.172Z,99.90
2019-02-08T19:00:57.899Z,99.90
2019-02-08T19:03:27.507Z,99.90
2019-02-08T19:05:57.246Z,99.90
2019-02-08T19:08:26.860Z,99.90
2019-02-08T19:10:56.492Z,99.90
2019-02-08T19:13:26.108Z,99.90
2019-02-08T19:15:55.949Z,99.90
2019-02-08T19:18:25.561Z,99.90
2019-02-08T19:20:55.201Z,99.90
2019-02-08T19:23:24.824Z,99.90
2019-02-08T19:25:54.692Z,99.90
2019-02-08T19:28:26.581Z,99.90
2019-02-08T19:30:55.713Z,99.90
2019-02-08T19:33:25.324Z,99.90
2019-02-08T19:35:55.289Z,99.90
2019-02-08T19:38:24.896Z,99.90
2019-02-08T19:40:54.540Z,99.90
2019-02-08T19:43:24.282Z,99.90
2019-02-08T19:45:54.116Z,99.90
2019-02-08T19:48:23.800Z,99.90
2019-02-08T19:50:53.500Z,99.90
2019-02-08T19:53:23.117Z,99.90
2019-02-08T19:55:52.961Z,99.90
2019-02-08T19:58:22.578Z,99.90
2019-02-08T20:00:52.281Z,99.90
2019-02-08T20:03:21.912Z,99.90
2019-02-08T20:05:51.799Z,99.90
2019-02-08T20:08:21.416Z,99.90
2019-02-08T20:10:51.289Z,99.90
2019-02-08T20:13:21.523Z,99.90
2019-02-08T20:15:51.176Z,99.90
2019-02-08T20:18:20.789Z,99.90
2019-02-08T20:20:51.824Z,99.90
2019-02-08T20:23:21.433Z,99.90
2019-02-08T20:25:51.318Z,99.90
2019-02-08T20:28:20.937Z,99.90
2019-02-08T20:30:50.564Z,99.90
2019-02-08T20:33:20.264Z,99.90
2019-02-08T20:35:49.972Z,99.90
2019-02-08T20:38:19.593Z,99.90
2019-02-08T20:40:50.873Z,99.90
2019-02-08T20:43:20.484Z,99.90
2019-02-08T20:45:50.127Z,99.90
2019-02-08T20:48:21.884Z,99.90
2019-02-08T20:50:51.764Z,99.90
2019-02-08T20:53:21.823Z,99.90
2019-02-08T20:55:52.774Z,99.90
2019-02-08T20:58:22.752Z,99.90
2019-02-08T21:00:53.036Z,99.90
2019-02-08T21:03:23.283Z,99.90
2019-02-08T21:05:53.116Z,99.90
2019-02-08T21:08:22.904Z,99.90
2019-02-08T21:10:52.661Z,99.90
2019-02-08T21:13:22.301Z,99.90
2019-02-08T21:15:51.921Z,99.90
2019-02-08T21:18:21.805Z,99.90
2019-02-08T21:20:51.492Z,99.90
2019-02-08T21:23:21.196Z,99.90
2019-02-08T21:25:52.192Z,99.90
2019-02-08T21:28:22.376Z,99.90
2019-02-08T21:30:52.058Z,99.90
2019-02-08T21:33:21.726Z,99.90
2019-02-08T21:35:51.524Z,99.90
2019-02-08T21:38:21.164Z,99.90
2019-02-08T21:40:50.920Z,99.90
2019-02-08T21:43:20.565Z,99.90
2019-02-08T21:45:50.302Z,99.90
2019-02-08T21:48:19.888Z,99.90
2019-02-08T21:50:49.505Z,99.90
2019-02-08T21:53:19.149Z,99.90
2019-02-08T21:55:48.856Z,99.90
2019-02-08T21:58:18.567Z,99.90
2019-02-08T22:00:48.345Z,99.90
2019-02-08T22:03:17.983Z,99.90
2019-02-08T22:05:50.734Z,99.90
2019-02-08T22:08:20.440Z,99.90
2019-02-08T22:10:50.055Z,99.90
2019-02-08T22:13:19.744Z,99.90
2019-02-08T22:15:49.632Z,99.90
2019-02-08T22:18:19.722Z,99.90
2019-02-08T22:20:49.402Z,99.90
2019-02-08T22:23:19.052Z,99.90
2019-02-08T22:25:48.732Z,99.90
2019-02-08T22:28:18.377Z,99.90
2019-02-08T22:30:47.996Z,99.90
2019-02-08T22:33:17.644Z,99.90
2019-02-08T22:35:47.628Z,99.90
2019-02-08T22:38:17.340Z,99.90
2019-02-08T22:40:47.028Z,99.90
2019-02-08T22:43:16.672Z,99.90
2019-02-08T22:45:46.435Z,99.90
2019-02-08T22:48:16.084Z,99.90
2019-02-08T22:50:45.705Z,99.90
2019-02-08T22:53:15.348Z,99.90
2019-02-08T22:55:45.040Z,99.90
2019-02-08T22:58:14.684Z,99.90
2019-02-08T23:00:53.812Z,99.90
2019-02-08T23:03:23.452Z,99.90
2019-02-08T23:05:53.072Z,99.90
2019-02-08T23:08:22.853Z,99.90
2019-02-08T23:10:52.650Z,99.90
2019-02-08T23:13:22.293Z,99.90
2019-02-08T23:15:52.049Z,99.90
2019-02-08T23:18:21.754Z,99.90
2019-02-08T23:20:51.372Z,99.90
2019-02-08T23:23:21.094Z,99.90
2019-02-08T23:25:50.912Z,99.90
2019-02-08T23:28:20.628Z,99.90
2019-02-08T23:30:50.246Z,99.90
2019-02-08T23:33:20.352Z,99.90
2019-02-08T23:35:50.116Z,99.90
2019-02-08T23:38:19.839Z,99.90
2019-02-08T23:40:49.532Z,99.90
2019-02-08T23:43:19.316Z,99.90
2019-02-08T23:45:49.003Z,99.90
2019-02-08T23:48:18.628Z,99.90
2019-02-08T23:50:48.268Z,99.90
2019-02-08T23:53:17.952Z,99.90
2019-02-08T23:55:47.628Z,99.90
2019-02-08T23:58:17.256Z,99.90
